sensor_id;sensor_type;location;lat;lon;timestamp;temperature;humidity
75380;HTU21D;65641;44.714;37.756;2023-05-29T00:00:07;21.97;61.78
75380;HTU21D;65641;44.714;37.756;2023-05-29T00:01:14;21.98;61.82
75380;HTU21D;65641;44.714;37.756;2023-05-29T00:02:21;21.96;61.74
75380;HTU21D;65641;44.714;37.756;2023-05-29T00:03:24;21.96;61.78
75380;HTU21D;65641;44.714;37.756;2023-05-29T00:04:45;21.97;61.73
75380;HTU21D;65641;44.714;37.756;2023-05-29T00:05:49;21.96;61.76
75380;HTU21D;65641;44.714;37.756;2023-05-29T00:06:52;21.95;61.86
75380;HTU21D;65641;44.714;37.756;2023-05-29T00:07:55;21.95;61.76
75380;HTU21D;65641;44.714;37.756;2023-05-29T00:08:59;21.96;61.82
75380;HTU21D;65641;44.714;37.756;2023-05-29T00:10:22;21.95;61.83
75380;HTU21D;65641;44.714;37.756;2023-05-29T00:11:25;21.95;61.83
75380;HTU21D;65641;44.714;37.756;2023-05-29T00:12:43;21.94;61.84
75380;HTU21D;65641;44.714;37.756;2023-05-29T00:13:47;21.93;61.83
75380;HTU21D;65641;44.714;37.756;2023-05-29T00:14:50;21.93;61.83
75380;HTU21D;65641;44.714;37.756;2023-05-29T00:15:54;21.92;61.84
75380;HTU21D;65641;44.714;37.756;2023-05-29T00:16:57;21.93;61.83
75380;HTU21D;65641;44.714;37.756;2023-05-29T00:18:15;21.92;61.87
75380;HTU21D;65641;44.714;37.756;2023-05-29T00:19:33;21.92;61.86
75380;HTU21D;65641;44.714;37.756;2023-05-29T00:20:36;21.93;61.92
75380;HTU21D;65641;44.714;37.756;2023-05-29T00:21:40;21.93;61.85
75380;HTU21D;65641;44.714;37.756;2023-05-29T00:22:44;21.92;61.84
75380;HTU21D;65641;44.714;37.756;2023-05-29T00:23:47;21.92;61.78
75380;HTU21D;65641;44.714;37.756;2023-05-29T00:24:51;21.93;61.83
75380;HTU21D;65641;44.714;37.756;2023-05-29T00:25:55;21.92;61.88
75380;HTU21D;65641;44.714;37.756;2023-05-29T00:26:58;21.93;61.79
75380;HTU21D;65641;44.714;37.756;2023-05-29T00:28:01;21.93;61.76
75380;HTU21D;65641;44.714;37.756;2023-05-29T00:29:05;21.93;61.72
75380;HTU21D;65641;44.714;37.756;2023-05-29T00:30:08;21.94;61.81
75380;HTU21D;65641;44.714;37.756;2023-05-29T00:31:11;21.92;61.97
75380;HTU21D;65641;44.714;37.756;2023-05-29T00:32:15;21.93;61.89
75380;HTU21D;65641;44.714;37.756;2023-05-29T00:33:49;21.92;61.85
75380;HTU21D;65641;44.714;37.756;2023-05-29T00:35:07;21.92;61.86
75380;HTU21D;65641;44.714;37.756;2023-05-29T00:36:11;21.92;61.76
75380;HTU21D;65641;44.714;37.756;2023-05-29T00:37:14;21.93;61.80
75380;HTU21D;65641;44.714;37.756;2023-05-29T00:38:18;21.93;61.85
75380;HTU21D;65641;44.714;37.756;2023-05-29T00:39:21;21.92;61.79
75380;HTU21D;65641;44.714;37.756;2023-05-29T00:40:25;21.93;61.78
75380;HTU21D;65641;44.714;37.756;2023-05-29T00:41:29;21.93;61.87
75380;HTU21D;65641;44.714;37.756;2023-05-29T00:42:32;21.93;61.82
75380;HTU21D;65641;44.714;37.756;2023-05-29T00:43:35;21.92;61.76
75380;HTU21D;65641;44.714;37.756;2023-05-29T00:44:39;21.92;61.81
75380;HTU21D;65641;44.714;37.756;2023-05-29T00:45:42;21.94;61.75
75380;HTU21D;65641;44.714;37.756;2023-05-29T00:46:46;21.93;61.80
75380;HTU21D;65641;44.714;37.756;2023-05-29T00:47:51;21.93;61.79
75380;HTU21D;65641;44.714;37.756;2023-05-29T00:49:10;21.93;61.76
75380;HTU21D;65641;44.714;37.756;2023-05-29T00:50:31;21.93;61.74
75380;HTU21D;65641;44.714;37.756;2023-05-29T00:51:35;21.94;61.75
75380;HTU21D;65641;44.714;37.756;2023-05-29T00:52:44;21.93;61.68
75380;HTU21D;65641;44.714;37.756;2023-05-29T00:54:04;21.93;61.76
75380;HTU21D;65641;44.714;37.756;2023-05-29T00:55:09;21.93;61.73
75380;HTU21D;65641;44.714;37.756;2023-05-29T00:56:12;21.92;61.71
75380;HTU21D;65641;44.714;37.756;2023-05-29T00:57:33;21.93;61.73
75380;HTU21D;65641;44.714;37.756;2023-05-29T00:58:36;21.91;61.73
75380;HTU21D;65641;44.714;37.756;2023-05-29T00:59:40;21.91;61.79
75380;HTU21D;65641;44.714;37.756;2023-05-29T01:00:44;21.92;61.79
75380;HTU21D;65641;44.714;37.756;2023-05-29T01:02:04;21.92;61.77
75380;HTU21D;65641;44.714;37.756;2023-05-29T01:03:08;21.92;61.82
75380;HTU21D;65641;44.714;37.756;2023-05-29T01:04:22;21.91;61.83
75380;HTU21D;65641;44.714;37.756;2023-05-29T01:05:40;21.91;61.86
75380;HTU21D;65641;44.714;37.756;2023-05-29T01:06:44;21.90;61.81
75380;HTU21D;65641;44.714;37.756;2023-05-29T01:08:03;21.91;61.77
75380;HTU21D;65641;44.714;37.756;2023-05-29T01:09:06;21.89;61.78
75380;HTU21D;65641;44.714;37.756;2023-05-29T01:10:10;21.89;61.81
75380;HTU21D;65641;44.714;37.756;2023-05-29T01:11:20;21.89;61.85
75380;HTU21D;65641;44.714;37.756;2023-05-29T01:12:50;21.88;61.83
75380;HTU21D;65641;44.714;37.756;2023-05-29T01:13:56;21.89;61.89
75380;HTU21D;65641;44.714;37.756;2023-05-29T01:16:24;21.87;61.93
75380;HTU21D;65641;44.714;37.756;2023-05-29T01:20:31;21.87;62.04
75380;HTU21D;65641;44.714;37.756;2023-05-29T01:23:23;21.83;62.10
75380;HTU21D;65641;44.714;37.756;2023-05-29T01:24:50;21.83;62.24
75380;HTU21D;65641;44.714;37.756;2023-05-29T01:26:51;21.81;62.28
75380;HTU21D;65641;44.714;37.756;2023-05-29T01:28:16;21.79;62.37
75380;HTU21D;65641;44.714;37.756;2023-05-29T01:29:26;21.78;62.32
75380;HTU21D;65641;44.714;37.756;2023-05-29T01:30:43;21.78;62.41
75380;HTU21D;65641;44.714;37.756;2023-05-29T01:32:05;21.75;62.49
75380;HTU21D;65641;44.714;37.756;2023-05-29T01:33:08;21.76;62.44
75380;HTU21D;65641;44.714;37.756;2023-05-29T01:34:13;21.75;62.46
75380;HTU21D;65641;44.714;37.756;2023-05-29T01:35:18;21.74;62.43
75380;HTU21D;65641;44.714;37.756;2023-05-29T01:36:22;21.73;62.52
75380;HTU21D;65641;44.714;37.756;2023-05-29T01:37:40;21.73;62.50
75380;HTU21D;65641;44.714;37.756;2023-05-29T01:39:04;21.73;62.49
75380;HTU21D;65641;44.714;37.756;2023-05-29T01:40:09;21.73;62.51
75380;HTU21D;65641;44.714;37.756;2023-05-29T01:41:12;21.72;62.48
75380;HTU21D;65641;44.714;37.756;2023-05-29T01:42:16;21.70;62.47
75380;HTU21D;65641;44.714;37.756;2023-05-29T01:43:19;21.70;62.56
75380;HTU21D;65641;44.714;37.756;2023-05-29T01:44:55;21.69;62.85
75380;HTU21D;65641;44.714;37.756;2023-05-29T01:46:16;21.69;62.78
75380;HTU21D;65641;44.714;37.756;2023-05-29T01:47:21;21.70;62.74
75380;HTU21D;65641;44.714;37.756;2023-05-29T01:48:24;21.70;62.75
75380;HTU21D;65641;44.714;37.756;2023-05-29T01:49:28;21.68;62.65
75380;HTU21D;65641;44.714;37.756;2023-05-29T01:50:33;21.67;62.76
75380;HTU21D;65641;44.714;37.756;2023-05-29T01:51:39;21.67;62.84
75380;HTU21D;65641;44.714;37.756;2023-05-29T01:52:43;21.68;62.79
75380;HTU21D;65641;44.714;37.756;2023-05-29T01:53:47;21.66;62.77
75380;HTU21D;65641;44.714;37.756;2023-05-29T01:55:06;21.66;62.79
75380;HTU21D;65641;44.714;37.756;2023-05-29T01:56:09;21.66;62.78
75380;HTU21D;65641;44.714;37.756;2023-05-29T01:57:13;21.66;62.79
75380;HTU21D;65641;44.714;37.756;2023-05-29T01:58:17;21.66;62.86
75380;HTU21D;65641;44.714;37.756;2023-05-29T01:59:22;21.66;62.82
75380;HTU21D;65641;44.714;37.756;2023-05-29T02:00:25;21.66;62.77
75380;HTU21D;65641;44.714;37.756;2023-05-29T02:01:38;21.67;62.82
75380;HTU21D;65641;44.714;37.756;2023-05-29T02:03:05;21.67;62.71
75380;HTU21D;65641;44.714;37.756;2023-05-29T02:04:08;21.67;62.69
75380;HTU21D;65641;44.714;37.756;2023-05-29T02:05:12;21.67;62.68
75380;HTU21D;65641;44.714;37.756;2023-05-29T02:06:33;21.68;62.72
75380;HTU21D;65641;44.714;37.756;2023-05-29T02:07:50;21.68;62.73
75380;HTU21D;65641;44.714;37.756;2023-05-29T02:08:53;21.68;62.70
75380;HTU21D;65641;44.714;37.756;2023-05-29T02:09:57;21.68;62.66
75380;HTU21D;65641;44.714;37.756;2023-05-29T02:11:00;21.69;62.64
75380;HTU21D;65641;44.714;37.756;2023-05-29T02:12:04;21.70;62.61
75380;HTU21D;65641;44.714;37.756;2023-05-29T02:13:08;21.69;62.61
75380;HTU21D;65641;44.714;37.756;2023-05-29T02:14:11;21.70;62.64
75380;HTU21D;65641;44.714;37.756;2023-05-29T02:15:15;21.70;62.59
75380;HTU21D;65641;44.714;37.756;2023-05-29T02:16:18;21.73;62.63
75380;HTU21D;65641;44.714;37.756;2023-05-29T02:17:23;21.73;62.46
75380;HTU21D;65641;44.714;37.756;2023-05-29T02:18:28;21.73;62.56
75380;HTU21D;65641;44.714;37.756;2023-05-29T02:19:31;21.74;62.49
75380;HTU21D;65641;44.714;37.756;2023-05-29T02:20:35;21.76;62.37
75380;HTU21D;65641;44.714;37.756;2023-05-29T02:21:39;21.78;62.34
75380;HTU21D;65641;44.714;37.756;2023-05-29T02:22:43;21.78;62.28
75380;HTU21D;65641;44.714;37.756;2023-05-29T02:24:06;21.78;62.24
75380;HTU21D;65641;44.714;37.756;2023-05-29T02:25:10;21.79;62.16
75380;HTU21D;65641;44.714;37.756;2023-05-29T02:26:13;21.80;62.26
75380;HTU21D;65641;44.714;37.756;2023-05-29T02:27:18;21.81;62.19
75380;HTU21D;65641;44.714;37.756;2023-05-29T02:28:24;21.83;62.13
75380;HTU21D;65641;44.714;37.756;2023-05-29T02:29:28;21.85;62.08
75380;HTU21D;65641;44.714;37.756;2023-05-29T02:30:46;21.87;62.02
75380;HTU21D;65641;44.714;37.756;2023-05-29T02:31:49;21.88;61.96
75380;HTU21D;65641;44.714;37.756;2023-05-29T02:32:53;21.89;61.89
75380;HTU21D;65641;44.714;37.756;2023-05-29T02:33:56;21.89;61.87
75380;HTU21D;65641;44.714;37.756;2023-05-29T02:34:59;21.91;61.79
75380;HTU21D;65641;44.714;37.756;2023-05-29T02:36:04;21.91;61.78
75380;HTU21D;65641;44.714;37.756;2023-05-29T02:37:14;21.93;61.78
75380;HTU21D;65641;44.714;37.756;2023-05-29T02:38:18;21.95;61.74
75380;HTU21D;65641;44.714;37.756;2023-05-29T02:39:45;21.96;61.65
75380;HTU21D;65641;44.714;37.756;2023-05-29T02:40:48;21.98;61.66
75380;HTU21D;65641;44.714;37.756;2023-05-29T02:41:52;22.01;61.55
75380;HTU21D;65641;44.714;37.756;2023-05-29T02:43:13;22.01;61.48
75380;HTU21D;65641;44.714;37.756;2023-05-29T02:44:17;22.03;61.43
75380;HTU21D;65641;44.714;37.756;2023-05-29T02:45:34;22.04;61.44
75380;HTU21D;65641;44.714;37.756;2023-05-29T02:46:40;22.06;61.41
75380;HTU21D;65641;44.714;37.756;2023-05-29T02:47:43;22.09;61.38
75380;HTU21D;65641;44.714;37.756;2023-05-29T02:49:24;22.10;61.31
75380;HTU21D;65641;44.714;37.756;2023-05-29T02:50:52;22.12;61.27
75380;HTU21D;65641;44.714;37.756;2023-05-29T02:51:55;22.14;61.19
75380;HTU21D;65641;44.714;37.756;2023-05-29T02:52:59;22.18;61.28
75380;HTU21D;65641;44.714;37.756;2023-05-29T02:54:03;22.20;61.14
75380;HTU21D;65641;44.714;37.756;2023-05-29T02:55:06;22.22;61.07
75380;HTU21D;65641;44.714;37.756;2023-05-29T02:56:27;22.25;61.04
75380;HTU21D;65641;44.714;37.756;2023-05-29T02:57:31;22.26;60.92
75380;HTU21D;65641;44.714;37.756;2023-05-29T02:58:35;22.29;60.92
75380;HTU21D;65641;44.714;37.756;2023-05-29T02:59:38;22.32;60.81
75380;HTU21D;65641;44.714;37.756;2023-05-29T03:00:59;22.35;60.72
75380;HTU21D;65641;44.714;37.756;2023-05-29T03:02:18;22.38;60.55
75380;HTU21D;65641;44.714;37.756;2023-05-29T03:03:38;22.43;60.47
75380;HTU21D;65641;44.714;37.756;2023-05-29T03:04:42;22.46;60.36
75380;HTU21D;65641;44.714;37.756;2023-05-29T03:05:45;22.50;60.26
75380;HTU21D;65641;44.714;37.756;2023-05-29T03:06:49;22.53;60.18
75380;HTU21D;65641;44.714;37.756;2023-05-29T03:08:07;22.56;60.06
75380;HTU21D;65641;44.714;37.756;2023-05-29T03:09:49;22.64;59.93
75380;HTU21D;65641;44.714;37.756;2023-05-29T03:10:52;22.65;59.80
75380;HTU21D;65641;44.714;37.756;2023-05-29T03:11:54;22.69;59.72
75380;HTU21D;65641;44.714;37.756;2023-05-29T03:12:57;22.73;59.60
75380;HTU21D;65641;44.714;37.756;2023-05-29T03:13:59;22.76;59.48
75380;HTU21D;65641;44.714;37.756;2023-05-29T03:15:01;22.81;59.37
75380;HTU21D;65641;44.714;37.756;2023-05-29T03:16:05;22.83;59.31
75380;HTU21D;65641;44.714;37.756;2023-05-29T03:17:07;22.86;59.25
75380;HTU21D;65641;44.714;37.756;2023-05-29T03:18:09;22.92;59.15
75380;HTU21D;65641;44.714;37.756;2023-05-29T03:19:11;22.96;58.95
75380;HTU21D;65641;44.714;37.756;2023-05-29T03:20:13;22.99;58.82
75380;HTU21D;65641;44.714;37.756;2023-05-29T03:21:17;23.05;58.77
75380;HTU21D;65641;44.714;37.756;2023-05-29T03:22:19;23.08;58.65
75380;HTU21D;65641;44.714;37.756;2023-05-29T03:23:21;23.12;58.52
75380;HTU21D;65641;44.714;37.756;2023-05-29T03:24:42;23.15;58.43
75380;HTU21D;65641;44.714;37.756;2023-05-29T03:25:44;23.18;58.38
75380;HTU21D;65641;44.714;37.756;2023-05-29T03:26:46;23.21;58.29
75380;HTU21D;65641;44.714;37.756;2023-05-29T03:27:50;23.23;58.27
75380;HTU21D;65641;44.714;37.756;2023-05-29T03:28:54;23.24;58.19
75380;HTU21D;65641;44.714;37.756;2023-05-29T03:30:12;23.23;58.22
75380;HTU21D;65641;44.714;37.756;2023-05-29T03:31:15;23.22;58.25
75380;HTU21D;65641;44.714;37.756;2023-05-29T03:32:17;23.20;58.29
75380;HTU21D;65641;44.714;37.756;2023-05-29T03:33:19;23.18;58.35
75380;HTU21D;65641;44.714;37.756;2023-05-29T03:34:36;23.14;58.49
75380;HTU21D;65641;44.714;37.756;2023-05-29T03:35:40;23.12;58.58
75380;HTU21D;65641;44.714;37.756;2023-05-29T03:36:42;23.10;58.64
75380;HTU21D;65641;44.714;37.756;2023-05-29T03:37:44;23.08;58.74
75380;HTU21D;65641;44.714;37.756;2023-05-29T03:39:04;23.03;58.87
75380;HTU21D;65641;44.714;37.756;2023-05-29T03:40:07;23.00;58.97
75380;HTU21D;65641;44.714;37.756;2023-05-29T03:41:09;22.98;59.07
75380;HTU21D;65641;44.714;37.756;2023-05-29T03:42:13;22.97;59.11
75380;HTU21D;65641;44.714;37.756;2023-05-29T03:43:15;22.95;59.18
75380;HTU21D;65641;44.714;37.756;2023-05-29T03:44:17;22.93;59.23
75380;HTU21D;65641;44.714;37.756;2023-05-29T03:45:25;22.93;59.33
75380;HTU21D;65641;44.714;37.756;2023-05-29T03:46:27;22.91;59.36
75380;HTU21D;65641;44.714;37.756;2023-05-29T03:47:29;22.91;59.38
75380;HTU21D;65641;44.714;37.756;2023-05-29T03:48:31;22.90;59.44
75380;HTU21D;65641;44.714;37.756;2023-05-29T03:49:48;22.87;59.50
75380;HTU21D;65641;44.714;37.756;2023-05-29T03:50:51;22.87;59.53
75380;HTU21D;65641;44.714;37.756;2023-05-29T03:51:59;22.87;59.52
75380;HTU21D;65641;44.714;37.756;2023-05-29T03:53:01;22.86;59.57
75380;HTU21D;65641;44.714;37.756;2023-05-29T03:54:29;22.85;59.61
75380;HTU21D;65641;44.714;37.756;2023-05-29T03:55:31;22.83;59.63
75380;HTU21D;65641;44.714;37.756;2023-05-29T03:56:50;22.83;59.65
75380;HTU21D;65641;44.714;37.756;2023-05-29T03:57:54;22.82;59.70
75380;HTU21D;65641;44.714;37.756;2023-05-29T03:59:22;22.80;59.79
75380;HTU21D;65641;44.714;37.756;2023-05-29T04:00:42;22.78;59.81
75380;HTU21D;65641;44.714;37.756;2023-05-29T04:01:47;22.78;59.85
75380;HTU21D;65641;44.714;37.756;2023-05-29T04:03:10;22.76;59.90
75380;HTU21D;65641;44.714;37.756;2023-05-29T04:04:14;22.75;59.93
75380;HTU21D;65641;44.714;37.756;2023-05-29T04:05:32;22.73;59.94
75380;HTU21D;65641;44.714;37.756;2023-05-29T04:06:50;22.72;59.98
75380;HTU21D;65641;44.714;37.756;2023-05-29T04:08:03;22.71;60.04
75380;HTU21D;65641;44.714;37.756;2023-05-29T04:09:17;22.70;60.06
75380;HTU21D;65641;44.714;37.756;2023-05-29T04:10:21;22.71;60.03
75380;HTU21D;65641;44.714;37.756;2023-05-29T04:11:25;22.69;60.07
75380;HTU21D;65641;44.714;37.756;2023-05-29T04:12:30;22.70;60.07
75380;HTU21D;65641;44.714;37.756;2023-05-29T04:13:34;22.70;60.08
75380;HTU21D;65641;44.714;37.756;2023-05-29T04:14:37;22.69;60.08
75380;HTU21D;65641;44.714;37.756;2023-05-29T04:15:40;22.69;60.09
75380;HTU21D;65641;44.714;37.756;2023-05-29T04:16:45;22.69;60.06
75380;HTU21D;65641;44.714;37.756;2023-05-29T04:17:48;22.71;60.05
75380;HTU21D;65641;44.714;37.756;2023-05-29T04:18:52;22.70;60.02
75380;HTU21D;65641;44.714;37.756;2023-05-29T04:19:57;22.72;59.99
75380;HTU21D;65641;44.714;37.756;2023-05-29T04:21:01;22.72;59.96
75380;HTU21D;65641;44.714;37.756;2023-05-29T04:22:05;22.73;59.92
75380;HTU21D;65641;44.714;37.756;2023-05-29T04:23:08;22.75;59.95
75380;HTU21D;65641;44.714;37.756;2023-05-29T04:24:13;22.76;59.90
75380;HTU21D;65641;44.714;37.756;2023-05-29T04:25:16;22.76;59.91
75380;HTU21D;65641;44.714;37.756;2023-05-29T04:26:23;22.77;59.90
75380;HTU21D;65641;44.714;37.756;2023-05-29T04:27:29;22.79;59.85
75380;HTU21D;65641;44.714;37.756;2023-05-29T04:28:33;22.78;59.84
75380;HTU21D;65641;44.714;37.756;2023-05-29T04:29:36;22.78;59.85
75380;HTU21D;65641;44.714;37.756;2023-05-29T04:30:43;22.80;59.80
75380;HTU21D;65641;44.714;37.756;2023-05-29T04:31:46;22.79;59.79
75380;HTU21D;65641;44.714;37.756;2023-05-29T04:32:50;22.82;59.76
75380;HTU21D;65641;44.714;37.756;2023-05-29T04:33:55;22.82;59.77
75380;HTU21D;65641;44.714;37.756;2023-05-29T04:35:00;22.84;59.68
75380;HTU21D;65641;44.714;37.756;2023-05-29T04:36:08;22.85;59.64
75380;HTU21D;65641;44.714;37.756;2023-05-29T04:37:41;22.88;59.53
75380;HTU21D;65641;44.714;37.756;2023-05-29T04:39:08;22.91;59.47
75380;HTU21D;65641;44.714;37.756;2023-05-29T04:40:12;22.94;59.37
75380;HTU21D;65641;44.714;37.756;2023-05-29T04:41:35;22.97;59.28
75380;HTU21D;65641;44.714;37.756;2023-05-29T04:42:43;22.99;59.23
75380;HTU21D;65641;44.714;37.756;2023-05-29T04:43:50;23.03;59.16
75380;HTU21D;65641;44.714;37.756;2023-05-29T04:45:22;23.06;59.02
75380;HTU21D;65641;44.714;37.756;2023-05-29T04:46:44;23.08;58.94
75380;HTU21D;65641;44.714;37.756;2023-05-29T04:47:48;23.11;58.86
75380;HTU21D;65641;44.714;37.756;2023-05-29T04:48:52;23.11;58.85
75380;HTU21D;65641;44.714;37.756;2023-05-29T04:49:56;23.14;58.81
75380;HTU21D;65641;44.714;37.756;2023-05-29T04:50:59;23.16;58.73
75380;HTU21D;65641;44.714;37.756;2023-05-29T04:52:03;23.17;58.66
75380;HTU21D;65641;44.714;37.756;2023-05-29T04:53:07;23.18;58.61
75380;HTU21D;65641;44.714;37.756;2023-05-29T04:54:29;23.23;58.53
75380;HTU21D;65641;44.714;37.756;2023-05-29T04:55:34;23.24;58.49
75380;HTU21D;65641;44.714;37.756;2023-05-29T04:56:38;23.24;58.46
75380;HTU21D;65641;44.714;37.756;2023-05-29T04:57:45;23.27;58.42
75380;HTU21D;65641;44.714;37.756;2023-05-29T04:59:03;23.31;58.35
75380;HTU21D;65641;44.714;37.756;2023-05-29T05:00:07;23.30;58.29
75380;HTU21D;65641;44.714;37.756;2023-05-29T05:01:13;23.32;58.28
75380;HTU21D;65641;44.714;37.756;2023-05-29T05:02:17;23.36;58.22
75380;HTU21D;65641;44.714;37.756;2023-05-29T05:03:23;23.36;58.17
75380;HTU21D;65641;44.714;37.756;2023-05-29T05:04:28;23.39;58.12
75380;HTU21D;65641;44.714;37.756;2023-05-29T05:05:31;23.39;58.07
75380;HTU21D;65641;44.714;37.756;2023-05-29T05:06:38;23.42;58.01
75380;HTU21D;65641;44.714;37.756;2023-05-29T05:08:05;23.45;57.93
75380;HTU21D;65641;44.714;37.756;2023-05-29T05:09:09;23.46;57.91
75380;HTU21D;65641;44.714;37.756;2023-05-29T05:10:14;23.47;57.86
75380;HTU21D;65641;44.714;37.756;2023-05-29T05:11:23;23.52;57.79
75380;HTU21D;65641;44.714;37.756;2023-05-29T05:12:26;23.54;57.71
75380;HTU21D;65641;44.714;37.756;2023-05-29T05:13:30;23.56;57.67
75380;HTU21D;65641;44.714;37.756;2023-05-29T05:14:34;23.58;57.61
75380;HTU21D;65641;44.714;37.756;2023-05-29T05:15:37;23.61;57.53
75380;HTU21D;65641;44.714;37.756;2023-05-29T05:16:41;23.61;57.50
75380;HTU21D;65641;44.714;37.756;2023-05-29T05:17:46;23.67;57.42
75380;HTU21D;65641;44.714;37.756;2023-05-29T05:18:49;23.68;57.34
75380;HTU21D;65641;44.714;37.756;2023-05-29T05:19:53;23.72;57.26
75380;HTU21D;65641;44.714;37.756;2023-05-29T05:21:10;23.75;57.14
75380;HTU21D;65641;44.714;37.756;2023-05-29T05:22:14;23.80;57.06
75380;HTU21D;65641;44.714;37.756;2023-05-29T05:23:17;23.83;57.00
75380;HTU21D;65641;44.714;37.756;2023-05-29T05:24:23;23.85;56.93
75380;HTU21D;65641;44.714;37.756;2023-05-29T05:25:26;23.88;56.85
75380;HTU21D;65641;44.714;37.756;2023-05-29T05:26:46;23.91;56.74
75380;HTU21D;65641;44.714;37.756;2023-05-29T05:27:49;23.92;56.70
75380;HTU21D;65641;44.714;37.756;2023-05-29T05:28:54;23.95;56.68
75380;HTU21D;65641;44.714;37.756;2023-05-29T05:30:15;23.97;56.59
75380;HTU21D;65641;44.714;37.756;2023-05-29T05:31:45;23.98;56.60
75380;HTU21D;65641;44.714;37.756;2023-05-29T05:32:49;23.97;56.63
75380;HTU21D;65641;44.714;37.756;2023-05-29T05:34:07;23.95;56.69
75380;HTU21D;65641;44.714;37.756;2023-05-29T05:35:34;23.94;56.75
75380;HTU21D;65641;44.714;37.756;2023-05-29T05:36:37;23.92;56.78
75380;HTU21D;65641;44.714;37.756;2023-05-29T05:37:44;23.91;56.84
75380;HTU21D;65641;44.714;37.756;2023-05-29T05:38:47;23.90;56.89
75380;HTU21D;65641;44.714;37.756;2023-05-29T05:39:50;23.88;56.96
75380;HTU21D;65641;44.714;37.756;2023-05-29T05:40:57;23.86;57.00
75380;HTU21D;65641;44.714;37.756;2023-05-29T05:42:05;23.84;57.08
75380;HTU21D;65641;44.714;37.756;2023-05-29T05:43:32;23.81;57.16
75380;HTU21D;65641;44.714;37.756;2023-05-29T05:44:42;23.79;57.23
75380;HTU21D;65641;44.714;37.756;2023-05-29T05:45:47;23.76;57.29
75380;HTU21D;65641;44.714;37.756;2023-05-29T05:47:09;23.73;57.40
75380;HTU21D;65641;44.714;37.756;2023-05-29T05:48:26;23.70;57.48
75380;HTU21D;65641;44.714;37.756;2023-05-29T05:49:44;23.66;57.61
75380;HTU21D;65641;44.714;37.756;2023-05-29T05:50:47;23.64;57.67
75380;HTU21D;65641;44.714;37.756;2023-05-29T05:52:06;23.60;57.80
75380;HTU21D;65641;44.714;37.756;2023-05-29T05:53:24;23.55;57.90
75380;HTU21D;65641;44.714;37.756;2023-05-29T05:54:42;23.52;58.06
75380;HTU21D;65641;44.714;37.756;2023-05-29T05:55:59;23.47;58.16
75380;HTU21D;65641;44.714;37.756;2023-05-29T05:57:17;23.45;58.20
75380;HTU21D;65641;44.714;37.756;2023-05-29T05:58:34;23.42;58.29
75380;HTU21D;65641;44.714;37.756;2023-05-29T05:59:54;23.41;58.36
75380;HTU21D;65641;44.714;37.756;2023-05-29T06:01:18;23.39;58.42
75380;HTU21D;65641;44.714;37.756;2023-05-29T06:02:35;23.37;58.48
75380;HTU21D;65641;44.714;37.756;2023-05-29T06:03:56;23.35;58.54
75380;HTU21D;65641;44.714;37.756;2023-05-29T06:04:59;23.32;58.57
75380;HTU21D;65641;44.714;37.756;2023-05-29T06:06:05;23.31;58.57
75380;HTU21D;65641;44.714;37.756;2023-05-29T06:07:24;23.32;58.61
75380;HTU21D;65641;44.714;37.756;2023-05-29T06:08:27;23.29;58.65
75380;HTU21D;65641;44.714;37.756;2023-05-29T06:09:48;23.29;58.67
75380;HTU21D;65641;44.714;37.756;2023-05-29T06:11:11;23.28;58.66
75380;HTU21D;65641;44.714;37.756;2023-05-29T06:12:33;23.29;58.64
75380;HTU21D;65641;44.714;37.756;2023-05-29T06:13:47;23.28;58.64
75380;HTU21D;65641;44.714;37.756;2023-05-29T06:15:02;23.31;58.58
75380;HTU21D;65641;44.714;37.756;2023-05-29T06:16:07;23.35;58.50
75380;HTU21D;65641;44.714;37.756;2023-05-29T06:17:11;23.36;58.41
75380;HTU21D;65641;44.714;37.756;2023-05-29T06:18:15;23.40;58.32
75380;HTU21D;65641;44.714;37.756;2023-05-29T06:19:18;23.43;58.21
75380;HTU21D;65641;44.714;37.756;2023-05-29T06:20:29;23.46;58.09
75380;HTU21D;65641;44.714;37.756;2023-05-29T06:21:33;23.53;57.93
75380;HTU21D;65641;44.714;37.756;2023-05-29T06:22:37;23.56;57.84
75380;HTU21D;65641;44.714;37.756;2023-05-29T06:24:04;23.65;57.58
75380;HTU21D;65641;44.714;37.756;2023-05-29T06:25:08;23.69;57.46
75380;HTU21D;65641;44.714;37.756;2023-05-29T06:26:12;23.75;57.22
75380;HTU21D;65641;44.714;37.756;2023-05-29T06:27:16;23.82;57.06
75380;HTU21D;65641;44.714;37.756;2023-05-29T06:28:21;23.85;56.97
75380;HTU21D;65641;44.714;37.756;2023-05-29T06:29:25;23.90;56.84
75380;HTU21D;65641;44.714;37.756;2023-05-29T06:30:29;23.97;56.70
75380;HTU21D;65641;44.714;37.756;2023-05-29T06:31:34;23.99;56.60
75380;HTU21D;65641;44.714;37.756;2023-05-29T06:32:37;24.04;56.47
75380;HTU21D;65641;44.714;37.756;2023-05-29T06:33:43;24.09;56.36
75380;HTU21D;65641;44.714;37.756;2023-05-29T06:35:02;24.15;56.11
75380;HTU21D;65641;44.714;37.756;2023-05-29T06:36:20;24.23;55.89
75380;HTU21D;65641;44.714;37.756;2023-05-29T06:37:23;24.28;55.78
75380;HTU21D;65641;44.714;37.756;2023-05-29T06:38:26;24.30;55.72
75380;HTU21D;65641;44.714;37.756;2023-05-29T06:39:30;24.31;55.65
75380;HTU21D;65641;44.714;37.756;2023-05-29T06:40:33;24.34;55.61
75380;HTU21D;65641;44.714;37.756;2023-05-29T06:41:57;24.39;55.50
75380;HTU21D;65641;44.714;37.756;2023-05-29T06:43:00;24.40;55.49
75380;HTU21D;65641;44.714;37.756;2023-05-29T06:44:33;24.45;55.36
75380;HTU21D;65641;44.714;37.756;2023-05-29T06:45:36;24.47;55.28
75380;HTU21D;65641;44.714;37.756;2023-05-29T06:46:39;24.49;55.25
75380;HTU21D;65641;44.714;37.756;2023-05-29T06:47:43;24.51;55.22
75380;HTU21D;65641;44.714;37.756;2023-05-29T06:49:00;24.54;55.11
75380;HTU21D;65641;44.714;37.756;2023-05-29T06:50:08;24.56;55.06
75380;HTU21D;65641;44.714;37.756;2023-05-29T06:51:12;24.58;55.02
75380;HTU21D;65641;44.714;37.756;2023-05-29T06:52:16;24.60;54.98
75380;HTU21D;65641;44.714;37.756;2023-05-29T06:53:48;24.61;54.96
75380;HTU21D;65641;44.714;37.756;2023-05-29T06:54:52;24.62;54.97
75380;HTU21D;65641;44.714;37.756;2023-05-29T06:55:57;24.62;54.97
75380;HTU21D;65641;44.714;37.756;2023-05-29T06:57:26;24.61;55.00
75380;HTU21D;65641;44.714;37.756;2023-05-29T06:58:30;24.61;55.04
75380;HTU21D;65641;44.714;37.756;2023-05-29T06:59:34;24.59;55.06
75380;HTU21D;65641;44.714;37.756;2023-05-29T07:02:58;24.56;55.17
75380;HTU21D;65641;44.714;37.756;2023-05-29T07:04:05;24.53;55.27
75380;HTU21D;65641;44.714;37.756;2023-05-29T07:05:10;24.50;55.33
75380;HTU21D;65641;44.714;37.756;2023-05-29T07:06:13;24.47;55.43
75380;HTU21D;65641;44.714;37.756;2023-05-29T07:07:17;24.46;55.52
75380;HTU21D;65641;44.714;37.756;2023-05-29T07:08:21;24.43;55.59
75380;HTU21D;65641;44.714;37.756;2023-05-29T07:09:26;24.41;55.65
75380;HTU21D;65641;44.714;37.756;2023-05-29T07:10:30;24.41;55.68